This is the latest recevied weather packets stored in our database for station/object MB7UKB-10. If no packets are shown the sender has not sent any weather packets the latest 10 day(s).
| Time | Temp. | Humidity | Pressure | Rain* | Wind** | Luminosity | Snow |
|---|---|---|---|---|---|---|---|
| 1787600727 | 17.78° C | 55% | 1015.6 hPa | 0 mm | - | - | - |
| 1787598927 | 18.33° C | 51% | 1015.2 hPa | 0 mm | - | - | - |
| 1787597127 | 18.89° C | 47% | 1015.1 hPa | 0 mm | - | - | - |
| 1787595326 | 19.44° C | 46% | 1015.2 hPa | 0 mm | - | - | - |
| 1787593528 | 20° C | 45% | 1015.3 hPa | 0 mm | - | - | - |
| 1787591727 | 21.11° C | 43% | 1015.6 hPa | 0 mm | - | - | - |
| 1787589928 | 22.22° C | 40% | 1015.6 hPa | 0 mm | - | - | - |
| 1787588127 | 21.67° C | 43% | 1016 hPa | 0 mm | - | - | - |
| 1787586327 | 23.33° C | 40% | 1016.2 hPa | 0 mm | - | - | - |
| 1787584527 | 22.78° C | 40% | 1016.6 hPa | 0 mm | - | - | - |
| 1787582727 | 22.78° C | 40% | 1016.9 hPa | 0 mm | - | - | - |
| 1787580927 | 22.22° C | 41% | 1017.4 hPa | 0 mm | - | - | - |
| 1787579127 | 22.78° C | 41% | 1017.7 hPa | 0 mm | - | - | - |
| 1787577327 | 23.89° C | 41% | 1017.9 hPa | 0 mm | - | - | - |
| 1787575527 | 22.22° C | 44% | 1018 hPa | 0 mm | - | - | - |
| 1787573726 | 22.78° C | 45% | 1018.4 hPa | 0 mm | - | - | - |
| 1787571926 | 21.67° C | 47% | 1018.7 hPa | 0 mm | - | - | - |
| 1787570126 | 22.78° C | 44% | 1019 hPa | 0 mm | - | - | - |
| 1787568326 | 20.56° C | 52% | 1019.9 hPa | 0 mm | - | - | - |
| 1787566526 | 19.44° C | 56% | 1020.2 hPa | 0 mm | - | - | - |
| 1787564727 | 19.44° C | 57% | 1020.5 hPa | 0 mm | - | - | - |
| 1787562926 | 18.89° C | 60% | 1020.7 hPa | 0 mm | - | - | - |
| 1787561126 | 18.33° C | 59% | 1020.9 hPa | 0 mm | - | - | - |
| 1787559326 | 17.22° C | 62% | 1021.1 hPa | 0 mm | - | - | - |
| 1787555728 | 14.44° C | 72% | 1021.4 hPa | 0 mm | - | - | - |
* Rain latest hour (hover to see other rain measurements)
** Current wind speed in m/s (hover to see current wind gust speed)